Time;durP1;ratioP1;P1;durP2;ratioP2;P2;SDS_P1;SDS_P2;PMS_P1;PMS_P2;Temp;Humidity;BMP_temperature;BMP_pressure;BME280_temperature;BME280_humidity;BME280_pressure;Samples;Min_cycle;Max_cycle;Signal;HPM_P1;HPM_P2
2023/01/20 00:01:02;;;;;;;0.80;0.80;;;;;;;-1.45;100.00;99731.50;5035432;28;20443;-51
2023/01/20 00:03:29;;;;;;;0.47;0.37;;;;;;;-1.58;100.00;99732.22;5049862;22;20611;-54
2023/01/20 00:05:55;;;;;;;0.50;0.50;;;;;;;-1.70;100.00;99734.69;5022534;28;20483;-52
2023/01/20 00:08:22;;;;;;;0.63;0.63;;;;;;;-1.92;100.00;99741.34;5020405;28;20479;-52
2023/01/20 00:10:48;;;;;;;0.60;0.50;;;;;;;-1.85;100.00;99736.25;5034255;28;20888;-52
2023/01/20 00:13:14;;;;;;;0.93;0.93;;;;;;;-1.89;100.00;99738.81;5033530;28;20472;-52
2023/01/20 00:15:41;;;;;;;2.83;0.97;;;;;;;-1.92;100.00;99742.25;5033956;28;20447;-52
2023/01/20 00:18:07;;;;;;;0.80;0.80;;;;;;;-1.98;100.00;99747.38;5033612;28;20546;-52
2023/01/20 00:20:34;;;;;;;0.40;0.40;;;;;;;-2.00;100.00;99753.41;5033602;28;20454;-52
2023/01/20 00:23:00;;;;;;;0.57;0.57;;;;;;;-2.08;100.00;99756.78;5033862;28;20475;-53
2023/01/20 00:25:27;;;;;;;0.30;0.20;;;;;;;-2.01;100.00;99755.16;5033962;28;20547;-52
2023/01/20 00:27:53;;;;;;;1.67;1.20;;;;;;;-1.92;100.00;99747.47;5033633;28;20948;-52
2023/01/20 00:30:20;;;;;;;3.87;0.90;;;;;;;-1.83;100.00;99757.09;5033974;28;20457;-53
2023/01/20 00:32:47;;;;;;;2.00;1.10;;;;;;;-1.85;100.00;99754.47;5033812;28;21012;-53
2023/01/20 00:35:13;;;;;;;1.23;1.23;;;;;;;-1.90;100.00;99755.31;5034232;28;20456;-52
2023/01/20 00:37:41;;;;;;;0.40;0.33;;;;;;;-2.14;100.00;99756.72;5033876;28;20578;-53
2023/01/20 00:40:08;;;;;;;1.07;0.90;;;;;;;-2.20;100.00;99759.22;5034151;28;20466;-54
2023/01/20 00:42:35;;;;;;;0.90;0.60;;;;;;;-1.97;100.00;99751.72;5033399;28;20838;-52
2023/01/20 00:45:01;;;;;;;0.43;0.43;;;;;;;-2.15;100.00;99756.69;5033906;28;20448;-53
2023/01/20 00:47:28;;;;;;;0.60;0.60;;;;;;;-2.20;100.00;99756.63;5033995;28;20526;-54
2023/01/20 00:49:54;;;;;;;0.40;0.40;;;;;;;-2.27;100.00;99753.91;5034670;28;20940;-53
2023/01/20 00:52:21;;;;;;;0.83;0.83;;;;;;;-2.17;100.00;99761.00;5034217;28;20988;-53
2023/01/20 00:54:47;;;;;;;0.90;0.80;;;;;;;-2.16;100.00;99758.44;5034800;28;20460;-53
2023/01/20 00:57:14;;;;;;;1.93;1.90;;;;;;;-2.03;100.00;99759.47;5034555;28;21007;-53
2023/01/20 00:59:40;;;;;;;1.47;0.77;;;;;;;-2.19;100.00;99760.13;5034209;28;20862;-53
2023/01/20 01:02:06;;;;;;;1.63;0.67;;;;;;;-2.33;100.00;99759.03;5033878;28;20476;-54
2023/01/20 01:04:33;;;;;;;0.20;0.20;;;;;;;-2.25;100.00;99765.22;5034203;28;20452;-53
2023/01/20 01:06:59;;;;;;;1.90;0.97;;;;;;;-2.19;100.00;99763.59;5033574;28;20447;-53
2023/01/20 01:09:26;;;;;;;3.17;1.07;;;;;;;-2.22;100.00;99767.88;5033990;28;20444;-53
2023/01/20 01:11:52;;;;;;;0.97;0.97;;;;;;;-2.43;100.00;99774.53;5033325;28;20844;-53
2023/01/20 01:14:19;;;;;;;0.30;0.30;;;;;;;-2.32;100.00;99773.81;5033798;28;20451;-53
2023/01/20 01:16:45;;;;;;;0.77;0.77;;;;;;;-2.37;100.00;99773.72;5033599;28;20537;-54
2023/01/20 01:19:11;;;;;;;0.60;0.60;;;;;;;-2.42;100.00;99778.88;5033996;28;20458;-53
2023/01/20 01:21:38;;;;;;;0.90;0.90;;;;;;;-2.47;100.00;99777.94;5033934;28;20475;-53
2023/01/20 01:24:05;;;;;;;1.70;1.70;;;;;;;-2.46;100.00;99786.63;5034081;28;20881;-53
2023/01/20 01:26:31;;;;;;;3.70;0.97;;;;;;;-2.52;100.00;99789.09;5034133;28;20447;-53
2023/01/20 01:28:58;;;;;;;0.40;0.40;;;;;;;-2.59;100.00;99793.34;5034499;28;20936;-53
2023/01/20 01:31:24;;;;;;;4.37;1.30;;;;;;;-2.68;100.00;99803.59;5034950;28;20490;-53
2023/01/20 01:33:51;;;;;;;0.60;0.60;;;;;;;-2.58;100.00;99802.03;5035469;28;20514;-52
2023/01/20 01:36:17;;;;;;;0.30;0.20;;;;;;;-2.63;100.00;99808.88;5035053;28;20484;-53
2023/01/20 01:38:44;;;;;;;1.73;1.27;;;;;;;-2.62;100.00;99801.09;5035431;28;20538;-53
2023/01/20 01:41:24;;;;;;;0.57;0.57;;;;;;;-2.73;100.00;99806.13;5035417;28;20450;-53
2023/01/20 01:44:08;;;;;;;0.40;0.30;;;;;;;-2.74;100.00;99816.47;5036667;28;20455;-53
2023/01/20 01:46:35;;;;;;;1.77;1.67;;;;;;;-2.72;100.00;99827.81;5028253;28;20470;-54
2023/01/20 01:49:12;;;;;;;0.30;0.30;;;;;;;-2.66;100.00;99824.44;5044493;28;20821;-53
2023/01/20 01:51:45;;;;;;;0.60;0.60;;;;;;;-2.60;100.00;99829.75;5044805;28;20460;-53
2023/01/20 01:54:15;;;;;;;1.13;1.13;;;;;;;-2.54;100.00;99820.31;5045364;28;20444;-54
2023/01/20 01:56:44;;;;;;;0.20;0.20;;;;;;;-2.74;99.74;99822.59;5050757;28;20525;-53
2023/01/20 01:59:12;;;;;;;0.40;0.40;;;;;;;-2.71;99.82;99822.63;5051398;28;20481;-53
2023/01/20 02:01:45;;;;;;;0.77;0.60;;;;;;;-2.68;99.78;99832.22;5051727;28;20463;-53
2023/01/20 02:04:14;;;;;;;1.43;1.03;;;;;;;-2.78;99.87;99835.50;5052474;28;20450;-55
2023/01/20 02:07:03;;;;;;;1.37;0.30;;;;;;;-2.85;99.82;99844.91;5051833;28;20450;-54
2023/01/20 02:09:30;;;;;;;1.03;1.03;;;;;;;-2.66;100.00;99834.81;5041168;28;20443;-55
2023/01/20 02:12:02;;;;;;;0.70;0.70;;;;;;;-2.56;100.00;99842.81;5052174;28;20498;-54
2023/01/20 02:14:34;;;;;;;0.60;0.60;;;;;;;-2.56;100.00;99839.34;5051763;28;20926;-54
2023/01/20 02:17:04;;;;;;;0.30;0.20;;;;;;;-2.81;99.98;99835.44;5046790;28;20482;-54
2023/01/20 02:19:53;;;;;;;0.50;0.50;;;;;;;-2.84;100.00;99844.06;5049685;28;20443;-54
2023/01/20 02:22:29;;;;;;;0.50;0.50;;;;;;;-2.85;99.99;99838.84;5044928;28;20502;-53
2023/01/20 02:25:14;;;;;;;6.60;3.87;;;;;;;-2.86;100.00;99834.50;5051823;28;20558;-54
2023/01/20 02:28:26;;;;;;;1.40;1.40;;;;;;;-2.89;100.00;99840.50;5049288;28;20451;-54
2023/01/20 02:31:11;;;;;;;0.20;0.20;;;;;;;-2.89;100.00;99848.28;5049567;28;20516;-53
2023/01/20 02:33:45;;;;;;;0.60;0.60;;;;;;;-3.02;99.88;99841.13;5039866;28;20474;-53
2023/01/20 02:36:26;;;;;;;0.30;0.20;;;;;;;-2.87;100.00;99849.22;5049328;28;20448;-53
2023/01/20 02:39:02;;;;;;;0.30;0.20;;;;;;;-2.95;100.00;99848.19;5049417;28;20482;-54
2023/01/20 02:41:40;;;;;;;0.30;0.20;;;;;;;-2.82;100.00;99849.28;5034531;28;20513;-53
2023/01/20 02:44:19;;;;;;;0.60;0.60;;;;;;;-2.88;99.90;99854.38;5035045;28;20450;-53
2023/01/20 02:46:52;;;;;;;1.73;1.70;;;;;;;-2.77;99.58;99863.25;5035323;28;20467;-53
2023/01/20 02:49:26;;;;;;;0.20;0.20;;;;;;;-2.77;100.00;99863.25;5035387;28;20452;-53
2023/01/20 02:52:00;;;;;;;0.40;0.40;;;;;;;-2.87;100.00;99862.22;5034900;28;21039;-53
2023/01/20 02:54:31;;;;;;;0.83;0.83;;;;;;;-2.87;100.00;99867.44;5034720;28;20940;-53
2023/01/20 02:57:01;;;;;;;0.70;0.70;;;;;;;-2.89;100.00;99870.81;5035026;28;20492;-53
2023/01/20 02:59:31;;;;;;;0.30;0.27;;;;;;;-2.87;100.00;99872.63;5034869;28;20447;-54
2023/01/20 03:02:09;;;;;;;0.37;0.23;;;;;;;-2.87;100.00;99880.41;5034814;28;20491;-54
2023/01/20 03:04:40;;;;;;;0.57;0.53;;;;;;;-2.80;100.00;99876.19;5035170;28;20444;-54
2023/01/20 03:07:10;;;;;;;0.77;0.77;;;;;;;-2.71;100.00;99882.44;5034631;28;20444;-54
2023/01/20 03:09:42;;;;;;;0.20;0.20;;;;;;;-2.59;100.00;99883.53;5034946;28;20454;-54
2023/01/20 03:12:36;;;;;;;0.40;0.40;;;;;;;-2.81;99.75;99882.25;5034451;28;20464;-54
2023/01/20 03:15:03;;;;;;;1.20;1.20;;;;;;;-2.69;99.86;99882.47;5034499;28;20941;-54
2023/01/20 03:17:31;;;;;;;1.07;0.57;;;;;;;-2.72;100.00;99891.09;5034136;28;20487;-54
2023/01/20 03:19:58;;;;;;;2.90;2.80;;;;;;;-2.77;100.00;99902.25;5034409;28;20454;-54
2023/01/20 03:22:25;;;;;;;0.37;0.30;;;;;;;-2.75;100.00;99900.56;5034308;28;20476;-54
2023/01/20 03:24:53;;;;;;;1.00;0.70;;;;;;;-2.90;100.00;99906.34;5034069;28;20823;-54
2023/01/20 03:27:19;;;;;;;0.73;0.73;;;;;;;-2.91;100.00;99909.78;5034280;28;20497;-54
2023/01/20 03:29:46;;;;;;;0.30;0.20;;;;;;;-2.75;100.00;99909.22;5034444;28;20522;-54
2023/01/20 03:32:13;;;;;;;2.83;0.63;;;;;;;-2.78;100.00;99910.91;5033929;28;20836;-54
2023/01/20 03:34:42;;;;;;;0.27;0.23;;;;;;;-2.82;100.00;99914.31;5034140;28;20452;-54
2023/01/20 03:37:11;;;;;;;0.20;0.20;;;;;;;-2.66;100.00;99913.72;5034272;28;20492;-54
2023/01/20 03:39:38;;;;;;;0.63;0.63;;;;;;;-2.70;100.00;99918.00;5034167;28;20448;-54
2023/01/20 03:42:14;;;;;;;0.20;0.20;;;;;;;-2.62;100.00;99922.47;5034101;28;20472;-54
2023/01/20 03:45:08;;;;;;;0.50;0.50;;;;;;;-2.49;100.00;99922.72;5020621;28;20498;-54
2023/01/20 03:47:59;;;;;;;0.43;0.43;;;;;;;-2.56;100.00;99923.47;5034034;28;20451;-54
2023/01/20 03:50:39;;;;;;;0.40;0.40;;;;;;;-2.60;100.00;99929.47;5033707;28;20448;-54
2023/01/20 03:53:34;;;;;;;3.70;1.57;;;;;;;-2.49;100.00;99937.44;5033524;28;20463;-55
2023/01/20 03:56:00;;;;;;;0.50;0.50;;;;;;;-2.43;100.00;99935.84;5024095;28;20828;-54
2023/01/20 03:58:31;;;;;;;0.70;0.70;;;;;;;-2.36;100.00;99944.63;5033763;28;20488;-54
2023/01/20 04:01:00;;;;;;;0.83;0.83;;;;;;;-2.33;100.00;99951.59;5021009;28;20988;-54
2023/01/20 04:03:44;;;;;;;11.03;0.97;;;;;;;-2.30;100.00;99949.06;5033308;28;20461;-54
2023/01/20 04:06:13;;;;;;;0.50;0.50;;;;;;;-2.29;100.00;99935.19;5033739;28;20448;-54
2023/01/20 04:08:45;;;;;;;9.50;1.07;;;;;;;-2.24;100.00;99944.84;5033331;28;20456;-54
2023/01/20 04:11:12;;;;;;;0.77;0.77;;;;;;;-2.10;100.00;99958.94;5033487;28;20447;-54
2023/01/20 04:13:39;;;;;;;1.97;1.97;;;;;;;-1.97;100.00;99959.16;5033029;28;20513;-54
2023/01/20 04:16:11;;;;;;;0.30;0.20;;;;;;;-1.99;100.00;99951.31;5033137;28;20970;-54
2023/01/20 04:18:45;;;;;;;2.93;0.53;;;;;;;-2.08;100.00;99962.44;5032569;28;20570;-54
2023/01/20 04:21:32;;;;;;;2.33;1.13;;;;;;;-1.84;100.00;99959.38;5033364;28;20458;-54
2023/01/20 04:24:05;;;;;;;1.60;1.50;;;;;;;-1.77;100.00;99962.97;5033205;28;20474;-54
2023/01/20 04:26:32;;;;;;;0.30;0.20;;;;;;;-1.82;100.00;99960.28;5033285;28;20459;-54
2023/01/20 04:28:58;;;;;;;1.63;1.33;;;;;;;-1.66;100.00;99968.31;5033179;28;20505;-54
2023/01/20 04:31:24;;;;;;;2.13;1.27;;;;;;;-1.60;100.00;99964.09;5033101;28;20486;-54
2023/01/20 04:33:56;;;;;;;1.13;0.60;;;;;;;-1.68;100.00;99962.22;5032946;28;20951;-55
2023/01/20 04:36:23;;;;;;;3.40;1.50;;;;;;;-1.64;100.00;99966.66;5032915;28;20459;-54
2023/01/20 04:38:49;;;;;;;0.57;0.57;;;;;;;-1.53;100.00;99952.91;5032718;28;20556;-54
2023/01/20 04:41:15;;;;;;;0.83;0.83;;;;;;;-1.41;100.00;99962.63;5032878;28;20459;-54
2023/01/20 04:43:44;;;;;;;5.23;1.57;;;;;;;-1.51;100.00;99961.63;5033185;28;20467;-55
2023/01/20 04:46:13;;;;;;;2.60;1.20;;;;;;;-1.43;100.00;99955.63;5032723;28;20458;-54
2023/01/20 04:48:42;;;;;;;3.43;0.70;;;;;;;-1.51;100.00;99961.63;5032880;28;20468;-54
2023/01/20 04:51:09;;;;;;;6.80;1.27;;;;;;;-1.44;100.00;99965.19;5032662;28;20454;-54
2023/01/20 04:53:35;;;;;;;9.47;1.97;;;;;;;-1.39;100.00;99954.81;5032590;28;20471;-54
2023/01/20 04:56:02;;;;;;;0.20;0.20;;;;;;;-1.43;100.00;99961.72;5032671;28;20447;-54
2023/01/20 04:58:28;;;;;;;0.50;0.50;;;;;;;-1.46;100.00;99966.91;5032816;28;20499;-54
2023/01/20 05:00:55;;;;;;;1.53;1.53;;;;;;;-1.52;100.00;99967.66;5032740;28;20517;-54
2023/01/20 05:03:21;;;;;;;1.30;1.30;;;;;;;-1.39;100.00;99975.66;5032661;28;20562;-54
2023/01/20 05:05:53;;;;;;;1.03;1.03;;;;;;;-1.35;100.00;99972.28;5032544;28;20452;-54
2023/01/20 05:08:19;;;;;;;0.30;0.20;;;;;;;-1.40;100.00;99976.53;5032885;28;20498;-54
2023/01/20 05:10:46;;;;;;;0.30;0.20;;;;;;;-1.51;100.00;99979.88;5032810;28;20447;-55
2023/01/20 05:13:12;;;;;;;1.60;1.60;;;;;;;-1.58;100.00;99984.97;5032680;28;20471;-54
2023/01/20 05:15:40;;;;;;;1.50;0.40;;;;;;;-1.58;100.00;99982.34;5032975;28;20450;-54
2023/01/20 05:18:07;;;;;;;0.90;0.90;;;;;;;-1.46;100.00;99990.34;5032510;28;20569;-54
2023/01/20 05:20:33;;;;;;;1.80;1.80;;;;;;;-1.60;100.00;99992.75;5032493;28;20543;-54
2023/01/20 05:23:00;;;;;;;0.53;0.53;;;;;;;-1.48;100.00;99997.28;5032474;28;20491;-54
2023/01/20 05:25:26;;;;;;;1.60;0.90;;;;;;;-1.42;100.00;100001.69;5032352;28;20455;-54
2023/01/20 05:27:53;;;;;;;1.67;1.57;;;;;;;-1.26;100.00;100004.53;5032382;28;20838;-54
2023/01/20 05:30:20;;;;;;;5.20;2.97;;;;;;;-1.32;100.00;100001.88;5018705;28;20819;-54
2023/01/20 05:32:50;;;;;;;3.80;2.63;;;;;;;-1.24;100.00;100009.78;5036093;28;20474;-54
2023/01/20 05:35:17;;;;;;;3.10;1.47;;;;;;;-0.98;100.00;100010.13;5036244;28;20451;-54
2023/01/20 05:37:43;;;;;;;1.10;1.00;;;;;;;-1.02;100.00;100019.66;5037078;28;20495;-54
2023/01/20 05:40:10;;;;;;;1.80;1.70;;;;;;;-1.14;100.00;100018.63;5037692;28;20569;-54
2023/01/20 05:42:37;;;;;;;2.33;1.20;;;;;;;-1.13;100.00;100018.63;5037742;28;20502;-54
2023/01/20 05:45:04;;;;;;;2.23;1.97;;;;;;;-1.14;100.00;100019.50;5037569;28;20830;-54
2023/01/20 05:47:45;;;;;;;1.17;1.17;;;;;;;-1.02;100.00;100034.44;5004163;28;20452;-54
2023/01/20 05:50:12;;;;;;;1.13;0.73;;;;;;;-1.03;100.00;100033.56;5036430;28;20975;-54
2023/01/20 05:52:38;;;;;;;0.60;0.60;;;;;;;-1.06;100.00;100033.53;5035607;28;20471;-54
2023/01/20 05:55:05;;;;;;;0.97;0.97;;;;;;;-1.00;100.00;100033.59;5036172;28;20462;-54
2023/01/20 05:57:31;;;;;;;1.30;1.00;;;;;;;-1.03;100.00;100038.78;5035694;28;20846;-54
2023/01/20 05:59:58;;;;;;;4.00;1.50;;;;;;;-0.96;100.00;100040.63;5035827;28;20494;-54
2023/01/20 06:02:24;;;;;;;1.60;1.57;;;;;;;-1.04;100.00;100047.44;5036197;28;20991;-53
2023/01/20 06:04:50;;;;;;;0.67;0.67;;;;;;;-1.07;100.00;100041.31;5035777;28;20828;-53
2023/01/20 06:07:17;;;;;;;2.50;1.20;;;;;;;-0.95;100.00;100041.50;5022772;28;20454;-53
2023/01/20 06:09:43;;;;;;;0.37;0.37;;;;;;;-0.72;100.00;100049.59;5035729;28;20452;-53
2023/01/20 06:12:10;;;;;;;0.70;0.70;;;;;;;-0.90;100.00;100052.84;5035717;28;20471;-54
2023/01/20 06:14:36;;;;;;;0.70;0.70;;;;;;;-0.88;100.00;100052.88;5035410;28;20451;-53
2023/01/20 06:17:03;;;;;;;1.90;0.83;;;;;;;-0.82;100.00;100059.06;5035760;28;20795;-53
2023/01/20 06:19:29;;;;;;;0.40;0.37;;;;;;;-0.86;100.00;100062.47;5035570;28;20539;-52
2023/01/20 06:21:56;;;;;;;4.83;2.27;;;;;;;-0.91;100.00;100058.94;5033070;28;21000;-53
2023/01/20 06:24:22;;;;;;;2.73;1.83;;;;;;;-0.73;100.00;100060.91;5035495;28;20497;-53
2023/01/20 06:26:50;;;;;;;0.90;0.90;;;;;;;-0.78;100.00;100066.06;5035371;28;20958;-52
2023/01/20 06:29:16;;;;;;;3.97;1.70;;;;;;;-0.65;100.00;100083.66;5035294;28;20952;-52
2023/01/20 06:31:44;;;;;;;1.73;1.63;;;;;;;-0.69;100.00;100078.34;5035762;28;20472;-53
2023/01/20 06:34:11;;;;;;;0.50;0.50;;;;;;;-0.61;100.00;100082.81;5035732;28;20812;-53
2023/01/20 06:36:37;;;;;;;15.07;2.40;;;;;;;-0.73;100.00;100084.38;5035276;28;20452;-53
2023/01/20 06:39:04;;;;;;;3.67;2.37;;;;;;;-0.76;100.00;100084.34;5035069;28;20503;-53
2023/01/20 06:41:31;;;;;;;0.40;0.40;;;;;;;-0.65;100.00;100086.25;5034303;28;20452;-53
2023/01/20 06:43:57;;;;;;;19.47;1.10;;;;;;;-0.68;100.00;100082.75;5035258;28;21011;-53
2023/01/20 06:46:23;;;;;;;1.47;1.47;;;;;;;-0.64;100.00;100089.75;5034858;28;20896;-53
2023/01/20 06:48:50;;;;;;;2.30;1.07;;;;;;;-0.72;100.00;100079.19;5034771;28;20884;-52
2023/01/20 06:51:19;;;;;;;4.93;4.47;;;;;;;-0.74;100.00;100087.84;5034928;28;20459;-53
2023/01/20 06:53:46;;;;;;;0.90;0.70;;;;;;;-0.66;100.00;100083.63;5034625;28;20498;-53
2023/01/20 06:56:14;;;;;;;1.13;1.03;;;;;;;-0.60;100.00;100087.19;5034475;28;20455;-53
2023/01/20 06:58:41;;;;;;;0.97;0.97;;;;;;;-0.58;100.00;100092.41;5034890;28;20495;-53
2023/01/20 07:01:11;;;;;;;3.60;1.53;;;;;;;-0.57;100.00;100096.78;5034710;28;20566;-54
2023/01/20 07:03:40;;;;;;;1.60;1.50;;;;;;;-0.54;100.00;100095.97;5034557;28;20538;-53
2023/01/20 07:06:14;;;;;;;4.00;2.27;;;;;;;-0.42;100.00;100099.56;5034998;28;20455;-54
2023/01/20 07:08:42;;;;;;;0.73;0.50;;;;;;;-0.34;100.00;100104.91;5034493;28;20461;-53
2023/01/20 07:11:09;;;;;;;8.13;1.93;;;;;;;-0.22;100.00;100109.41;5034515;28;21026;-53
2023/01/20 07:13:35;;;;;;;0.50;0.50;;;;;;;-0.40;100.00;100113.56;5034412;28;20525;-53
2023/01/20 07:16:02;;;;;;;3.53;1.90;;;;;;;-0.44;100.00;100109.13;5034705;28;20471;-53
2023/01/20 07:18:28;;;;;;;5.63;1.40;;;;;;;-0.53;100.00;100110.75;5034233;28;20554;-52
2023/01/20 07:20:55;;;;;;;3.10;2.90;;;;;;;-0.34;100.00;100123.19;5034181;28;20451;-53
2023/01/20 07:23:23;;;;;;;1.83;1.83;;;;;;;-0.30;100.00;100132.81;5034103;28;20478;-53
2023/01/20 07:26:21;;;;;;;1.70;1.60;;;;;;;-0.38;100.00;100135.34;5034461;28;20777;-53
2023/01/20 07:28:47;;;;;;;0.80;0.80;;;;;;;-0.66;100.00;100131.47;5022635;28;20455;-53
2023/01/20 07:31:16;;;;;;;2.07;1.87;;;;;;;-0.69;100.00;100136.63;5034099;28;20452;-53
2023/01/20 07:33:43;;;;;;;2.00;1.90;;;;;;;-0.57;100.00;100140.28;5033919;28;20526;-53
2023/01/20 07:36:12;;;;;;;0.80;0.80;;;;;;;-0.57;100.00;100140.28;5034074;28;20464;-53
2023/01/20 07:38:38;;;;;;;1.83;1.70;;;;;;;-0.45;100.00;100138.69;5034085;28;20491;-53
2023/01/20 07:41:10;;;;;;;0.40;0.40;;;;;;;-0.11;100.00;100150.47;5034126;28;20454;-53
2023/01/20 07:43:36;;;;;;;5.80;1.23;;;;;;;-0.06;100.00;100150.50;5033958;28;20472;-53
2023/01/20 07:46:04;;;;;;;1.77;1.67;;;;;;;-0.02;100.00;100152.28;5035391;28;20448;-53
2023/01/20 07:48:31;;;;;;;1.63;1.53;;;;;;;-0.37;100.00;100147.53;5033981;28;20448;-53
2023/01/20 07:51:06;;;;;;;1.60;1.53;;;;;;;-0.43;100.00;100146.56;5033734;28;20451;-53
2023/01/20 07:53:34;;;;;;;0.80;0.80;;;;;;;-0.52;100.00;100151.66;5032725;28;20467;-53
2023/01/20 07:56:04;;;;;;;1.00;1.00;;;;;;;-0.37;100.00;100147.53;5033692;28;20451;-53
2023/01/20 07:58:31;;;;;;;1.23;1.03;;;;;;;-0.27;100.00;100147.63;5015996;28;20484;-53
2023/01/20 08:01:09;;;;;;;7.83;1.37;;;;;;;-0.23;100.00;100150.31;5033704;28;20456;-53
2023/01/20 08:03:36;;;;;;;2.93;1.43;;;;;;;-0.24;100.00;100164.22;5033341;28;20494;-53
2023/01/20 08:06:07;;;;;;;1.53;1.43;;;;;;;-0.12;100.00;100174.84;5033691;28;20451;-53
2023/01/20 08:08:35;;;;;;;3.03;0.77;;;;;;;-0.07;100.00;100182.72;5033473;28;20494;-53
2023/01/20 08:11:02;;;;;;;0.97;0.97;;;;;;;-0.13;100.00;100182.66;5033356;28;21030;-53
2023/01/20 08:13:30;;;;;;;0.43;0.43;;;;;;;-0.30;100.00;100185.03;5032894;28;20468;-53
2023/01/20 08:16:05;;;;;;;7.97;3.40;;;;;;;-0.45;100.00;100187.44;5033167;28;20452;-53
2023/01/20 08:18:32;;;;;;;4.73;0.93;;;;;;;-0.41;100.00;100178.78;5033282;28;20505;-53
2023/01/20 08:20:59;;;;;;;0.57;0.57;;;;;;;-0.41;100.00;100186.59;5033080;28;20452;-53
2023/01/20 08:23:25;;;;;;;1.43;0.83;;;;;;;-0.58;100.00;100186.38;5032968;28;20471;-54
2023/01/20 08:26:00;;;;;;;0.63;0.63;;;;;;;-0.46;100.00;100197.00;5032927;28;20452;-53
2023/01/20 08:28:28;;;;;;;1.13;1.13;;;;;;;-0.26;100.00;100188.56;5032958;28;20443;-53
2023/01/20 08:31:01;;;;;;;0.30;0.20;;;;;;;-0.17;100.00;100200.00;5033080;28;20493;-52
2023/01/20 08:33:27;;;;;;;0.77;0.77;;;;;;;-0.06;100.00;100207.97;5020385;28;20463;-53
2023/01/20 08:35:55;;;;;;;0.50;0.40;;;;;;;-0.03;100.00;100198.44;5032760;28;20452;-53
2023/01/20 08:38:21;;;;;;;1.17;1.17;;;;;;;0.14;100.00;100208.25;5032804;28;20491;-53
2023/01/20 08:40:48;;;;;;;2.53;2.33;;;;;;;0.31;100.00;100216.28;5032919;28;20450;-53
2023/01/20 08:43:14;;;;;;;1.77;1.27;;;;;;;0.29;100.00;100218.88;5033666;28;21019;-53
2023/01/20 08:45:42;;;;;;;1.40;1.30;;;;;;;0.28;100.00;100218.00;5035629;28;20466;-53
2023/01/20 08:48:09;;;;;;;0.40;0.40;;;;;;;0.41;100.00;100224.25;5032900;28;20444;-53
2023/01/20 08:50:35;;;;;;;0.90;0.90;;;;;;;0.41;100.00;100223.34;5032780;28;20494;-53
2023/01/20 08:53:02;;;;;;;2.10;0.90;;;;;;;0.63;100.00;100233.19;5032573;28;20980;-53
2023/01/20 08:55:30;;;;;;;4.37;2.83;;;;;;;0.66;100.00;100221.88;5032753;28;20535;-52
2023/01/20 08:57:56;;;;;;;0.63;0.63;;;;;;;0.58;100.00;100224.44;5017078;28;20448;-53
2023/01/20 09:00:23;;;;;;;1.97;1.87;;;;;;;0.59;100.00;100231.41;5033449;28;20956;-53
2023/01/20 09:02:49;;;;;;;1.90;1.80;;;;;;;0.56;100.00;100226.16;5032266;28;20484;-52
2023/01/20 09:05:16;;;;;;;1.97;1.87;;;;;;;0.54;100.00;100220.88;5032337;28;20506;-53
2023/01/20 09:07:44;;;;;;;1.27;1.17;;;;;;;0.59;100.00;100229.66;5032378;28;20505;-53
2023/01/20 09:10:11;;;;;;;1.93;1.60;;;;;;;0.66;100.00;100235.81;5015062;28;20528;-53
2023/01/20 09:12:38;;;;;;;2.00;1.90;;;;;;;0.73;100.00;100231.56;5016451;28;20474;-52
2023/01/20 09:15:06;;;;;;;1.63;1.53;;;;;;;0.88;100.00;100231.69;5032496;28;20522;-53
2023/01/20 09:17:35;;;;;;;5.63;2.50;;;;;;;1.17;100.00;100235.44;5032622;28;20448;-53
2023/01/20 09:20:02;;;;;;;8.10;2.80;;;;;;;1.11;100.00;100237.16;5032148;28;20534;-53
2023/01/20 09:22:28;;;;;;;1.80;1.67;;;;;;;1.09;100.00;100231.88;5032641;28;20534;-52
2023/01/20 09:24:55;;;;;;;5.53;1.63;;;;;;;1.06;100.00;100241.44;5032559;28;20459;-53
2023/01/20 09:27:22;;;;;;;4.50;3.90;;;;;;;1.23;100.00;100246.81;5032524;28;20546;-53
2023/01/20 09:29:48;;;;;;;2.30;2.20;;;;;;;1.18;100.00;100242.44;5032315;28;20509;-53
2023/01/20 09:32:15;;;;;;;4.50;2.53;;;;;;;1.31;100.00;100242.53;5032270;28;20839;-53
2023/01/20 09:34:41;;;;;;;1.60;1.50;;;;;;;1.31;100.00;100235.56;5032150;28;20451;-52
2023/01/20 09:46:07;;;;;;;0.90;0.90;;;;;;;1.60;100.00;100253.22;5032376;28;20446;-53
2023/01/20 09:54:32;;;;;;;0.83;0.83;;;;;;;1.76;100.00;100247.22;5032128;28;20448;-53
2023/01/20 09:57:00;;;;;;;2.93;2.83;;;;;;;1.85;100.00;100249.91;5014504;28;20531;-54
2023/01/20 09:59:37;;;;;;;0.63;0.63;;;;;;;1.88;100.00;100255.16;5032132;28;20491;-54
2023/01/20 10:02:12;;;;;;;2.70;2.00;;;;;;;1.95;100.00;100242.97;5028410;28;20499;-53
2023/01/20 10:04:47;;;;;;;4.63;1.53;;;;;;;2.06;100.00;100250.03;5026828;28;20929;-53
2023/01/20 10:07:19;;;;;;;2.23;2.13;;;;;;;2.16;100.00;100257.91;5031976;28;20454;-54
2023/01/20 10:09:59;;;;;;;2.97;2.77;;;;;;;2.13;100.00;100250.03;5032098;28;20440;-53
2023/01/20 10:12:35;;;;;;;1.67;1.57;;;;;;;2.24;100.00;100264.09;5020069;28;21039;-53
2023/01/20 10:15:12;;;;;;;8.13;1.70;;;;;;;2.33;100.00;100254.53;5032205;28;20446;-54
2023/01/20 10:17:46;;;;;;;1.83;1.73;;;;;;;2.34;99.93;100258.91;5035444;28;20451;-53
2023/01/20 10:20:34;;;;;;;1.80;1.60;;;;;;;2.41;100.00;100257.16;5035254;28;20491;-53
2023/01/20 10:23:13;;;;;;;1.80;1.03;;;;;;;2.54;99.40;100258.97;5035314;28;20525;-54
2023/01/20 10:25:57;;;;;;;1.73;1.63;;;;;;;2.48;99.27;100264.19;5018001;28;20448;-53
2023/01/20 10:28:31;;;;;;;3.33;1.53;;;;;;;2.68;99.07;100253.75;5022365;28;20447;-54
2023/01/20 10:31:01;;;;;;;1.93;1.50;;;;;;;2.75;98.97;100252.03;5035045;28;20447;-54
2023/01/20 10:33:38;;;;;;;2.67;2.50;;;;;;;2.68;98.46;100245.88;5035460;28;20472;-53
2023/01/20 10:36:12;;;;;;;1.73;1.63;;;;;;;2.86;99.07;100248.53;5035346;28;20451;-53
2023/01/20 10:39:08;;;;;;;1.13;1.03;;;;;;;3.08;98.23;100249.44;5035129;28;20498;-53
2023/01/20 10:41:37;;;;;;;0.70;0.70;;;;;;;3.32;96.94;100243.34;4986507;28;20932;-54
2023/01/20 10:44:13;;;;;;;3.93;1.33;;;;;;;3.22;95.87;100247.72;5034971;28;20971;-53
2023/01/20 10:46:58;;;;;;;1.40;1.40;;;;;;;3.46;96.13;100243.34;5035204;28;20447;-54
2023/01/20 10:49:36;;;;;;;1.90;1.80;;;;;;;3.37;95.27;100238.94;5034937;28;20440;-53
2023/01/20 10:52:23;;;;;;;3.70;1.23;;;;;;;3.47;95.46;100238.09;5034778;28;20466;-53
2023/01/20 10:55:11;;;;;;;0.67;0.40;;;;;;;3.74;94.27;100228.41;5034826;28;20448;-54
2023/01/20 10:57:38;;;;;;;1.03;0.67;;;;;;;4.08;92.01;100237.06;5022564;28;20447;-54
2023/01/20 11:00:19;;;;;;;0.50;0.40;;;;;;;3.95;90.79;100235.34;5034426;28;21058;-54
2023/01/20 11:02:48;;;;;;;1.40;0.73;;;;;;;4.09;90.53;100230.94;5035279;28;20491;-53
2023/01/20 11:05:24;;;;;;;1.30;1.27;;;;;;;4.02;90.14;100227.47;5036048;28;20456;-53
2023/01/20 11:07:53;;;;;;;0.77;0.63;;;;;;;4.27;90.25;100228.25;5035184;28;20463;-54
2023/01/20 11:10:26;;;;;;;1.20;1.10;;;;;;;4.53;90.67;100227.25;5034843;28;20454;-53
2023/01/20 11:12:56;;;;;;;0.50;0.50;;;;;;;4.51;89.75;100226.38;5036115;28;20475;-53
2023/01/20 11:15:27;;;;;;;2.30;1.30;;;;;;;4.33;88.14;100225.59;5034394;28;20550;-54
2023/01/20 11:18:15;;;;;;;2.23;0.77;;;;;;;3.99;88.75;100227.47;5034963;28;20540;-54
2023/01/20 11:20:54;;;;;;;1.77;1.37;;;;;;;4.10;89.40;100227.41;5024087;28;20448;-53
2023/01/20 11:23:22;;;;;;;2.20;0.30;;;;;;;3.94;90.34;100228.34;5032569;28;20474;-53
2023/01/20 11:25:56;;;;;;;0.80;0.70;;;;;;;4.28;89.48;100224.75;5034557;28;20831;-54
2023/01/20 11:28:23;;;;;;;1.20;0.77;;;;;;;4.42;89.22;100230.81;5034362;28;20452;-54
2023/01/20 11:30:55;;;;;;;1.07;0.97;;;;;;;4.69;88.40;100223.66;5034258;28;20456;-54
2023/01/20 11:33:25;;;;;;;1.00;0.90;;;;;;;4.46;87.20;100231.66;5020772;28;20468;-53
2023/01/20 11:36:01;;;;;;;0.50;0.50;;;;;;;4.52;87.78;100229.00;5033880;28;20447;-53
2023/01/20 11:38:40;;;;;;;5.10;1.53;;;;;;;4.58;87.61;100230.72;5034067;28;20455;-54
2023/01/20 11:41:17;;;;;;;0.73;0.73;;;;;;;4.61;87.70;100238.59;5034359;28;20494;-54
2023/01/20 11:43:43;;;;;;;2.10;0.97;;;;;;;4.89;86.52;100237.56;5033951;28;20451;-54
2023/01/20 11:46:25;;;;;;;0.83;0.83;;;;;;;4.69;86.84;100231.56;5035490;28;20478;-54
2023/01/20 11:49:18;;;;;;;0.70;0.67;;;;;;;4.49;87.94;100239.53;5017952;28;20541;-54
2023/01/20 11:51:48;;;;;;;0.40;0.20;;;;;;;4.70;87.04;100239.44;5034336;28;20483;-54
2023/01/20 11:54:36;;;;;;;0.37;0.30;;;;;;;4.93;86.69;100230.50;5033761;28;20824;-53